sensor_id;sensor_type;location;lat;lon;timestamp;P1;durP1;ratioP1;P2;durP2;ratioP2
81714;SDS011;71125;44.066;2.982;2023-07-24T00:02:06;14.90;;;4.18;;
81714;SDS011;71125;44.066;2.982;2023-07-24T00:04:33;11.00;;;4.20;;
81714;SDS011;71125;44.066;2.982;2023-07-24T00:07:02;9.52;;;3.80;;
81714;SDS011;71125;44.066;2.982;2023-07-24T00:09:28;10.85;;;4.32;;
81714;SDS011;71125;44.066;2.982;2023-07-24T00:11:54;11.27;;;3.65;;
81714;SDS011;71125;44.066;2.982;2023-07-24T00:14:20;16.63;;;4.32;;
81714;SDS011;71125;44.066;2.982;2023-07-24T00:16:47;7.65;;;3.63;;
81714;SDS011;71125;44.066;2.982;2023-07-24T00:19:13;6.68;;;3.92;;
81714;SDS011;71125;44.066;2.982;2023-07-24T00:21:39;9.15;;;4.25;;
81714;SDS011;71125;44.066;2.982;2023-07-24T00:24:05;9.77;;;3.55;;
81714;SDS011;71125;44.066;2.982;2023-07-24T00:26:31;8.43;;;3.35;;
81714;SDS011;71125;44.066;2.982;2023-07-24T00:28:58;10.00;;;4.05;;
81714;SDS011;71125;44.066;2.982;2023-07-24T00:31:25;11.07;;;3.90;;
81714;SDS011;71125;44.066;2.982;2023-07-24T00:33:51;9.90;;;3.45;;
81714;SDS011;71125;44.066;2.982;2023-07-24T00:36:17;8.15;;;3.75;;
81714;SDS011;71125;44.066;2.982;2023-07-24T00:38:43;7.03;;;3.55;;
81714;SDS011;71125;44.066;2.982;2023-07-24T00:41:09;7.30;;;3.55;;
81714;SDS011;71125;44.066;2.982;2023-07-24T00:43:35;8.05;;;3.75;;
81714;SDS011;71125;44.066;2.982;2023-07-24T00:46:02;13.38;;;3.55;;
81714;SDS011;71125;44.066;2.982;2023-07-24T00:48:28;9.27;;;3.95;;
81714;SDS011;71125;44.066;2.982;2023-07-24T00:50:54;8.02;;;3.58;;
81714;SDS011;71125;44.066;2.982;2023-07-24T00:53:21;11.48;;;3.58;;
81714;SDS011;71125;44.066;2.982;2023-07-24T00:55:47;7.13;;;3.42;;
81714;SDS011;71125;44.066;2.982;2023-07-24T00:58:14;8.40;;;4.28;;
81714;SDS011;71125;44.066;2.982;2023-07-24T01:00:42;7.57;;;3.90;;
81714;SDS011;71125;44.066;2.982;2023-07-24T01:03:08;8.02;;;4.03;;
81714;SDS011;71125;44.066;2.982;2023-07-24T01:05:34;9.98;;;3.65;;
81714;SDS011;71125;44.066;2.982;2023-07-24T01:08:00;7.88;;;3.90;;
81714;SDS011;71125;44.066;2.982;2023-07-24T01:10:26;11.25;;;3.88;;
81714;SDS011;71125;44.066;2.982;2023-07-24T01:15:20;13.00;;;4.30;;
81714;SDS011;71125;44.066;2.982;2023-07-24T01:17:53;8.05;;;3.90;;
81714;SDS011;71125;44.066;2.982;2023-07-24T01:20:21;6.28;;;3.53;;
81714;SDS011;71125;44.066;2.982;2023-07-24T01:25:27;11.00;;;4.13;;
81714;SDS011;71125;44.066;2.982;2023-07-24T01:27:54;9.55;;;4.03;;
81714;SDS011;71125;44.066;2.982;2023-07-24T01:30:20;11.43;;;3.80;;
81714;SDS011;71125;44.066;2.982;2023-07-24T01:32:47;8.85;;;4.15;;
81714;SDS011;71125;44.066;2.982;2023-07-24T01:35:13;6.57;;;3.80;;
81714;SDS011;71125;44.066;2.982;2023-07-24T01:37:39;10.98;;;4.72;;
81714;SDS011;71125;44.066;2.982;2023-07-24T01:40:06;9.85;;;4.05;;
81714;SDS011;71125;44.066;2.982;2023-07-24T01:42:33;11.63;;;4.10;;
81714;SDS011;71125;44.066;2.982;2023-07-24T01:44:59;9.27;;;4.28;;
81714;SDS011;71125;44.066;2.982;2023-07-24T01:47:25;11.60;;;4.68;;
81714;SDS011;71125;44.066;2.982;2023-07-24T01:49:51;15.85;;;4.10;;
81714;SDS011;71125;44.066;2.982;2023-07-24T01:52:19;10.68;;;4.00;;
81714;SDS011;71125;44.066;2.982;2023-07-24T01:54:45;11.45;;;4.47;;
81714;SDS011;71125;44.066;2.982;2023-07-24T01:57:11;10.85;;;4.65;;
81714;SDS011;71125;44.066;2.982;2023-07-24T01:59:37;13.10;;;5.68;;
81714;SDS011;71125;44.066;2.982;2023-07-24T02:02:03;12.07;;;4.93;;
81714;SDS011;71125;44.066;2.982;2023-07-24T02:04:30;12.18;;;4.57;;
81714;SDS011;71125;44.066;2.982;2023-07-24T02:06:56;9.90;;;4.00;;
81714;SDS011;71125;44.066;2.982;2023-07-24T02:09:22;14.63;;;4.03;;
81714;SDS011;71125;44.066;2.982;2023-07-24T02:11:48;7.85;;;4.68;;
81714;SDS011;71125;44.066;2.982;2023-07-24T02:14:14;10.95;;;4.15;;
81714;SDS011;71125;44.066;2.982;2023-07-24T02:16:42;7.00;;;3.95;;
81714;SDS011;71125;44.066;2.982;2023-07-24T02:19:08;8.38;;;3.92;;
81714;SDS011;71125;44.066;2.982;2023-07-24T02:21:34;7.55;;;3.83;;
81714;SDS011;71125;44.066;2.982;2023-07-24T02:24:00;8.23;;;4.45;;
81714;SDS011;71125;44.066;2.982;2023-07-24T02:26:26;8.45;;;4.45;;
81714;SDS011;71125;44.066;2.982;2023-07-24T02:28:52;7.90;;;4.18;;
81714;SDS011;71125;44.066;2.982;2023-07-24T02:31:19;8.57;;;3.75;;
81714;SDS011;71125;44.066;2.982;2023-07-24T02:33:45;9.55;;;3.88;;
81714;SDS011;71125;44.066;2.982;2023-07-24T02:36:11;8.32;;;4.38;;
81714;SDS011;71125;44.066;2.982;2023-07-24T02:38:37;12.80;;;3.78;;
81714;SDS011;71125;44.066;2.982;2023-07-24T02:41:03;8.73;;;4.50;;
81714;SDS011;71125;44.066;2.982;2023-07-24T02:43:29;9.82;;;4.63;;
81714;SDS011;71125;44.066;2.982;2023-07-24T02:45:59;10.27;;;4.07;;
81714;SDS011;71125;44.066;2.982;2023-07-24T02:48:26;14.57;;;4.70;;
81714;SDS011;71125;44.066;2.982;2023-07-24T02:50:52;7.85;;;3.65;;
81714;SDS011;71125;44.066;2.982;2023-07-24T02:53:18;9.77;;;4.55;;
81714;SDS011;71125;44.066;2.982;2023-07-24T02:55:44;8.30;;;4.35;;
81714;SDS011;71125;44.066;2.982;2023-07-24T02:58:13;8.13;;;4.20;;
81714;SDS011;71125;44.066;2.982;2023-07-24T03:00:40;7.60;;;4.10;;
81714;SDS011;71125;44.066;2.982;2023-07-24T03:03:06;19.33;;;4.35;;
81714;SDS011;71125;44.066;2.982;2023-07-24T03:05:35;13.88;;;4.65;;
81714;SDS011;71125;44.066;2.982;2023-07-24T03:08:01;8.52;;;3.75;;
81714;SDS011;71125;44.066;2.982;2023-07-24T03:10:27;7.65;;;3.90;;
81714;SDS011;71125;44.066;2.982;2023-07-24T03:12:53;11.07;;;4.40;;
81714;SDS011;71125;44.066;2.982;2023-07-24T03:15:19;8.13;;;3.58;;
81714;SDS011;71125;44.066;2.982;2023-07-24T03:17:45;8.48;;;3.90;;
81714;SDS011;71125;44.066;2.982;2023-07-24T03:20:13;7.82;;;3.83;;
81714;SDS011;71125;44.066;2.982;2023-07-24T03:22:42;9.88;;;4.13;;
81714;SDS011;71125;44.066;2.982;2023-07-24T03:25:09;8.85;;;4.00;;
81714;SDS011;71125;44.066;2.982;2023-07-24T03:27:35;10.57;;;4.57;;
81714;SDS011;71125;44.066;2.982;2023-07-24T03:30:01;8.45;;;3.67;;
81714;SDS011;71125;44.066;2.982;2023-07-24T03:32:27;5.95;;;3.60;;
81714;SDS011;71125;44.066;2.982;2023-07-24T03:34:53;7.30;;;4.00;;
81714;SDS011;71125;44.066;2.982;2023-07-24T03:37:19;9.45;;;3.92;;
81714;SDS011;71125;44.066;2.982;2023-07-24T03:39:45;9.00;;;3.97;;
81714;SDS011;71125;44.066;2.982;2023-07-24T03:42:11;10.10;;;3.92;;
81714;SDS011;71125;44.066;2.982;2023-07-24T03:44:40;9.00;;;3.85;;
81714;SDS011;71125;44.066;2.982;2023-07-24T03:47:07;10.63;;;4.00;;
81714;SDS011;71125;44.066;2.982;2023-07-24T03:49:33;10.85;;;4.32;;
81714;SDS011;71125;44.066;2.982;2023-07-24T03:51:59;8.93;;;3.90;;
81714;SDS011;71125;44.066;2.982;2023-07-24T03:54:25;7.90;;;4.15;;
81714;SDS011;71125;44.066;2.982;2023-07-24T03:56:51;7.40;;;4.32;;
81714;SDS011;71125;44.066;2.982;2023-07-24T03:59:17;11.15;;;4.55;;
81714;SDS011;71125;44.066;2.982;2023-07-24T04:01:43;6.68;;;3.97;;
81714;SDS011;71125;44.066;2.982;2023-07-24T04:04:09;11.07;;;4.75;;
81714;SDS011;71125;44.066;2.982;2023-07-24T04:06:35;9.07;;;3.80;;
81714;SDS011;71125;44.066;2.982;2023-07-24T04:09:02;6.90;;;4.03;;
81714;SDS011;71125;44.066;2.982;2023-07-24T04:11:28;14.25;;;4.00;;
81714;SDS011;71125;44.066;2.982;2023-07-24T04:13:54;10.00;;;4.78;;
81714;SDS011;71125;44.066;2.982;2023-07-24T04:16:20;11.48;;;4.65;;
81714;SDS011;71125;44.066;2.982;2023-07-24T04:18:46;8.15;;;4.05;;
81714;SDS011;71125;44.066;2.982;2023-07-24T04:21:12;9.35;;;4.30;;
81714;SDS011;71125;44.066;2.982;2023-07-24T04:23:38;10.45;;;3.85;;
81714;SDS011;71125;44.066;2.982;2023-07-24T04:26:04;7.18;;;4.30;;
81714;SDS011;71125;44.066;2.982;2023-07-24T04:28:30;9.90;;;4.35;;
81714;SDS011;71125;44.066;2.982;2023-07-24T04:30:59;12.27;;;4.43;;
81714;SDS011;71125;44.066;2.982;2023-07-24T04:33:26;10.10;;;4.95;;
81714;SDS011;71125;44.066;2.982;2023-07-24T04:35:53;10.35;;;5.15;;
81714;SDS011;71125;44.066;2.982;2023-07-24T04:38:20;10.70;;;5.13;;
81714;SDS011;71125;44.066;2.982;2023-07-24T04:40:46;9.80;;;4.43;;
81714;SDS011;71125;44.066;2.982;2023-07-24T04:43:12;8.43;;;4.57;;
81714;SDS011;71125;44.066;2.982;2023-07-24T04:45:38;16.80;;;4.95;;
81714;SDS011;71125;44.066;2.982;2023-07-24T04:48:04;9.25;;;4.60;;
81714;SDS011;71125;44.066;2.982;2023-07-24T04:50:30;7.60;;;4.13;;
81714;SDS011;71125;44.066;2.982;2023-07-24T04:52:57;8.98;;;4.38;;
81714;SDS011;71125;44.066;2.982;2023-07-24T04:55:23;10.10;;;4.53;;
81714;SDS011;71125;44.066;2.982;2023-07-24T04:57:50;9.30;;;4.50;;
81714;SDS011;71125;44.066;2.982;2023-07-24T05:00:16;11.65;;;4.85;;
81714;SDS011;71125;44.066;2.982;2023-07-24T05:02:42;11.10;;;4.30;;
81714;SDS011;71125;44.066;2.982;2023-07-24T05:05:08;10.80;;;5.03;;
81714;SDS011;71125;44.066;2.982;2023-07-24T05:07:34;12.68;;;4.85;;
81714;SDS011;71125;44.066;2.982;2023-07-24T05:10:00;11.32;;;4.60;;
81714;SDS011;71125;44.066;2.982;2023-07-24T05:12:26;9.07;;;4.93;;
81714;SDS011;71125;44.066;2.982;2023-07-24T05:14:52;9.00;;;4.50;;
81714;SDS011;71125;44.066;2.982;2023-07-24T05:17:18;9.80;;;4.38;;
81714;SDS011;71125;44.066;2.982;2023-07-24T05:19:44;13.00;;;4.95;;
81714;SDS011;71125;44.066;2.982;2023-07-24T05:22:10;12.10;;;4.65;;
81714;SDS011;71125;44.066;2.982;2023-07-24T05:24:36;7.65;;;4.50;;
81714;SDS011;71125;44.066;2.982;2023-07-24T05:27:03;10.57;;;4.47;;
81714;SDS011;71125;44.066;2.982;2023-07-24T05:29:29;7.78;;;4.60;;
81714;SDS011;71125;44.066;2.982;2023-07-24T05:31:56;9.57;;;4.70;;
81714;SDS011;71125;44.066;2.982;2023-07-24T05:34:22;10.60;;;4.85;;
81714;SDS011;71125;44.066;2.982;2023-07-24T05:36:48;9.85;;;4.28;;
81714;SDS011;71125;44.066;2.982;2023-07-24T05:39:14;14.10;;;5.82;;
81714;SDS011;71125;44.066;2.982;2023-07-24T05:41:40;8.88;;;4.47;;
81714;SDS011;71125;44.066;2.982;2023-07-24T05:44:06;7.38;;;4.13;;
81714;SDS011;71125;44.066;2.982;2023-07-24T05:46:32;7.47;;;4.28;;
81714;SDS011;71125;44.066;2.982;2023-07-24T05:48:58;8.45;;;4.57;;
81714;SDS011;71125;44.066;2.982;2023-07-24T05:51:26;9.98;;;4.20;;
81714;SDS011;71125;44.066;2.982;2023-07-24T05:53:52;8.20;;;4.38;;
81714;SDS011;71125;44.066;2.982;2023-07-24T05:56:18;8.05;;;4.25;;
81714;SDS011;71125;44.066;2.982;2023-07-24T05:58:44;10.23;;;4.35;;
81714;SDS011;71125;44.066;2.982;2023-07-24T06:01:10;7.78;;;3.92;;
81714;SDS011;71125;44.066;2.982;2023-07-24T06:03:36;14.50;;;4.32;;
81714;SDS011;71125;44.066;2.982;2023-07-24T06:06:05;7.45;;;4.18;;
81714;SDS011;71125;44.066;2.982;2023-07-24T06:08:31;8.55;;;4.32;;
81714;SDS011;71125;44.066;2.982;2023-07-24T06:10:57;7.18;;;4.53;;
81714;SDS011;71125;44.066;2.982;2023-07-24T06:13:24;9.60;;;4.75;;
81714;SDS011;71125;44.066;2.982;2023-07-24T06:15:50;10.43;;;5.18;;
81714;SDS011;71125;44.066;2.982;2023-07-24T06:18:17;10.57;;;5.20;;
81714;SDS011;71125;44.066;2.982;2023-07-24T06:20:43;8.90;;;4.97;;
81714;SDS011;71125;44.066;2.982;2023-07-24T06:23:09;8.68;;;4.57;;
81714;SDS011;71125;44.066;2.982;2023-07-24T06:25:35;10.75;;;4.97;;
81714;SDS011;71125;44.066;2.982;2023-07-24T06:28:01;11.63;;;4.45;;
81714;SDS011;71125;44.066;2.982;2023-07-24T06:30:27;10.20;;;4.50;;
81714;SDS011;71125;44.066;2.982;2023-07-24T06:32:53;8.77;;;4.35;;
81714;SDS011;71125;44.066;2.982;2023-07-24T06:35:19;9.88;;;4.88;;
81714;SDS011;71125;44.066;2.982;2023-07-24T06:37:45;9.65;;;4.53;;
81714;SDS011;71125;44.066;2.982;2023-07-24T06:40:12;8.32;;;4.75;;
81714;SDS011;71125;44.066;2.982;2023-07-24T06:42:38;7.20;;;4.38;;
81714;SDS011;71125;44.066;2.982;2023-07-24T06:45:04;11.75;;;4.38;;
81714;SDS011;71125;44.066;2.982;2023-07-24T06:47:30;8.13;;;4.75;;
81714;SDS011;71125;44.066;2.982;2023-07-24T06:49:56;12.50;;;4.30;;
81714;SDS011;71125;44.066;2.982;2023-07-24T06:52:22;10.35;;;4.22;;
81714;SDS011;71125;44.066;2.982;2023-07-24T06:54:48;6.50;;;3.92;;
81714;SDS011;71125;44.066;2.982;2023-07-24T06:57:14;7.05;;;4.35;;
81714;SDS011;71125;44.066;2.982;2023-07-24T06:59:40;13.18;;;3.92;;
81714;SDS011;71125;44.066;2.982;2023-07-24T07:02:06;8.18;;;4.18;;
81714;SDS011;71125;44.066;2.982;2023-07-24T07:04:33;17.58;;;4.68;;
81714;SDS011;71125;44.066;2.982;2023-07-24T07:06:59;9.75;;;4.05;;
81714;SDS011;71125;44.066;2.982;2023-07-24T07:09:25;12.07;;;4.03;;
81714;SDS011;71125;44.066;2.982;2023-07-24T07:11:51;9.60;;;3.90;;
81714;SDS011;71125;44.066;2.982;2023-07-24T07:14:17;11.57;;;4.13;;
81714;SDS011;71125;44.066;2.982;2023-07-24T07:16:43;8.90;;;3.88;;
81714;SDS011;71125;44.066;2.982;2023-07-24T07:19:09;8.18;;;4.40;;
81714;SDS011;71125;44.066;2.982;2023-07-24T07:21:35;9.70;;;4.18;;
81714;SDS011;71125;44.066;2.982;2023-07-24T07:24:01;13.65;;;4.22;;
81714;SDS011;71125;44.066;2.982;2023-07-24T07:26:27;12.98;;;4.53;;
81714;SDS011;71125;44.066;2.982;2023-07-24T07:28:54;14.57;;;4.20;;
81714;SDS011;71125;44.066;2.982;2023-07-24T07:31:21;13.30;;;4.70;;
81714;SDS011;71125;44.066;2.982;2023-07-24T07:33:47;15.88;;;5.60;;
81714;SDS011;71125;44.066;2.982;2023-07-24T07:36:13;11.07;;;5.20;;
81714;SDS011;71125;44.066;2.982;2023-07-24T07:38:39;19.70;;;4.88;;
81714;SDS011;71125;44.066;2.982;2023-07-24T07:41:06;12.23;;;5.22;;
81714;SDS011;71125;44.066;2.982;2023-07-24T07:43:32;15.75;;;5.35;;
81714;SDS011;71125;44.066;2.982;2023-07-24T07:45:59;13.93;;;6.03;;
81714;SDS011;71125;44.066;2.982;2023-07-24T07:48:25;15.52;;;5.60;;
81714;SDS011;71125;44.066;2.982;2023-07-24T07:50:51;14.52;;;5.78;;
81714;SDS011;71125;44.066;2.982;2023-07-24T07:53:18;11.50;;;5.70;;
81714;SDS011;71125;44.066;2.982;2023-07-24T07:55:44;12.93;;;6.15;;
81714;SDS011;71125;44.066;2.982;2023-07-24T07:58:10;14.02;;;5.45;;
81714;SDS011;71125;44.066;2.982;2023-07-24T08:00:36;10.82;;;5.22;;
81714;SDS011;71125;44.066;2.982;2023-07-24T08:03:04;13.73;;;5.28;;
81714;SDS011;71125;44.066;2.982;2023-07-24T08:05:30;13.63;;;5.03;;
81714;SDS011;71125;44.066;2.982;2023-07-24T08:07:57;9.30;;;4.78;;
81714;SDS011;71125;44.066;2.982;2023-07-24T08:10:23;9.25;;;5.13;;
81714;SDS011;71125;44.066;2.982;2023-07-24T08:12:49;8.50;;;4.28;;
81714;SDS011;71125;44.066;2.982;2023-07-24T08:15:15;11.02;;;4.63;;
81714;SDS011;71125;44.066;2.982;2023-07-24T08:17:41;9.90;;;4.43;;
81714;SDS011;71125;44.066;2.982;2023-07-24T08:20:07;12.02;;;4.47;;
81714;SDS011;71125;44.066;2.982;2023-07-24T08:22:33;10.40;;;4.45;;
81714;SDS011;71125;44.066;2.982;2023-07-24T08:25:00;16.10;;;5.25;;
81714;SDS011;71125;44.066;2.982;2023-07-24T08:27:26;11.73;;;5.30;;
81714;SDS011;71125;44.066;2.982;2023-07-24T08:29:52;7.43;;;4.10;;
81714;SDS011;71125;44.066;2.982;2023-07-24T08:32:18;6.15;;;4.03;;
81714;SDS011;71125;44.066;2.982;2023-07-24T08:34:44;10.18;;;4.60;;
81714;SDS011;71125;44.066;2.982;2023-07-24T08:37:11;9.68;;;4.00;;
81714;SDS011;71125;44.066;2.982;2023-07-24T08:39:37;13.20;;;4.40;;
81714;SDS011;71125;44.066;2.982;2023-07-24T08:42:10;10.57;;;3.50;;
81714;SDS011;71125;44.066;2.982;2023-07-24T08:44:36;6.60;;;3.47;;
81714;SDS011;71125;44.066;2.982;2023-07-24T08:47:03;5.55;;;3.42;;
81714;SDS011;71125;44.066;2.982;2023-07-24T08:49:29;6.97;;;3.33;;
81714;SDS011;71125;44.066;2.982;2023-07-24T08:51:56;5.35;;;2.83;;
81714;SDS011;71125;44.066;2.982;2023-07-24T08:54:22;8.10;;;2.83;;
81714;SDS011;71125;44.066;2.982;2023-07-24T08:56:50;4.05;;;2.80;;
81714;SDS011;71125;44.066;2.982;2023-07-24T08:59:16;5.10;;;2.83;;
81714;SDS011;71125;44.066;2.982;2023-07-24T09:01:43;6.00;;;2.85;;
81714;SDS011;71125;44.066;2.982;2023-07-24T09:04:09;6.90;;;2.63;;
81714;SDS011;71125;44.066;2.982;2023-07-24T09:06:35;5.20;;;3.20;;
81714;SDS011;71125;44.066;2.982;2023-07-24T09:09:02;11.00;;;3.15;;
81714;SDS011;71125;44.066;2.982;2023-07-24T09:11:28;7.80;;;3.17;;
81714;SDS011;71125;44.066;2.982;2023-07-24T09:13:54;7.78;;;3.10;;
81714;SDS011;71125;44.066;2.982;2023-07-24T09:16:21;4.68;;;3.08;;
81714;SDS011;71125;44.066;2.982;2023-07-24T09:18:48;8.63;;;3.20;;
81714;SDS011;71125;44.066;2.982;2023-07-24T09:21:26;5.63;;;3.67;;
81714;SDS011;71125;44.066;2.982;2023-07-24T09:23:52;5.68;;;3.60;;
81714;SDS011;71125;44.066;2.982;2023-07-24T09:26:18;9.50;;;3.63;;
81714;SDS011;71125;44.066;2.982;2023-07-24T09:28:50;7.07;;;3.22;;
81714;SDS011;71125;44.066;2.982;2023-07-24T09:31:17;10.43;;;4.40;;
81714;SDS011;71125;44.066;2.982;2023-07-24T09:33:43;7.53;;;4.10;;
81714;SDS011;71125;44.066;2.982;2023-07-24T09:36:09;6.15;;;3.63;;
81714;SDS011;71125;44.066;2.982;2023-07-24T09:38:36;6.53;;;3.95;;
81714;SDS011;71125;44.066;2.982;2023-07-24T09:41:03;4.68;;;2.60;;
81714;SDS011;71125;44.066;2.982;2023-07-24T09:43:29;4.90;;;2.67;;
81714;SDS011;71125;44.066;2.982;2023-07-24T09:45:56;7.20;;;2.05;;
81714;SDS011;71125;44.066;2.982;2023-07-24T09:48:23;8.00;;;3.22;;
81714;SDS011;71125;44.066;2.982;2023-07-24T09:50:53;6.35;;;2.50;;
81714;SDS011;71125;44.066;2.982;2023-07-24T09:58:21;7.35;;;3.75;;
81714;SDS011;71125;44.066;2.982;2023-07-24T10:00:48;5.85;;;3.33;;
81714;SDS011;71125;44.066;2.982;2023-07-24T10:03:15;3.85;;;2.40;;
81714;SDS011;71125;44.066;2.982;2023-07-24T10:05:43;6.25;;;3.40;;
81714;SDS011;71125;44.066;2.982;2023-07-24T10:08:10;6.97;;;4.03;;
81714;SDS011;71125;44.066;2.982;2023-07-24T10:10:37;4.50;;;2.05;;
81714;SDS011;71125;44.066;2.982;2023-07-24T10:13:03;8.32;;;3.70;;
81714;SDS011;71125;44.066;2.982;2023-07-24T10:15:30;6.97;;;2.83;;
81714;SDS011;71125;44.066;2.982;2023-07-24T10:18:03;7.80;;;3.60;;
81714;SDS011;71125;44.066;2.982;2023-07-24T10:20:35;5.88;;;2.78;;
81714;SDS011;71125;44.066;2.982;2023-07-24T10:23:02;4.88;;;2.58;;
81714;SDS011;71125;44.066;2.982;2023-07-24T10:25:29;5.32;;;2.38;;
81714;SDS011;71125;44.066;2.982;2023-07-24T10:28:00;5.30;;;2.63;;
81714;SDS011;71125;44.066;2.982;2023-07-24T10:30:29;6.40;;;2.33;;
81714;SDS011;71125;44.066;2.982;2023-07-24T10:33:05;4.00;;;2.30;;
81714;SDS011;71125;44.066;2.982;2023-07-24T10:38:04;5.93;;;2.60;;
81714;SDS011;71125;44.066;2.982;2023-07-24T10:40:30;5.63;;;2.50;;
81714;SDS011;71125;44.066;2.982;2023-07-24T10:43:18;5.68;;;2.70;;
81714;SDS011;71125;44.066;2.982;2023-07-24T10:45:48;5.15;;;2.53;;
81714;SDS011;71125;44.066;2.982;2023-07-24T10:48:18;11.63;;;4.30;;
81714;SDS011;71125;44.066;2.982;2023-07-24T10:50:45;7.20;;;2.67;;
81714;SDS011;71125;44.066;2.982;2023-07-24T10:53:13;6.03;;;2.67;;
81714;SDS011;71125;44.066;2.982;2023-07-24T10:55:41;7.50;;;2.80;;
81714;SDS011;71125;44.066;2.982;2023-07-24T10:58:07;6.50;;;2.80;;
81714;SDS011;71125;44.066;2.982;2023-07-24T11:00:33;7.22;;;2.75;;
81714;SDS011;71125;44.066;2.982;2023-07-24T11:02:59;8.30;;;3.10;;
81714;SDS011;71125;44.066;2.982;2023-07-24T11:05:26;8.02;;;2.88;;
81714;SDS011;71125;44.066;2.982;2023-07-24T11:07:52;9.43;;;3.22;;
81714;SDS011;71125;44.066;2.982;2023-07-24T11:10:21;7.50;;;2.80;;
81714;SDS011;71125;44.066;2.982;2023-07-24T11:12:48;8.25;;;2.92;;
81714;SDS011;71125;44.066;2.982;2023-07-24T11:15:15;7.53;;;3.10;;
81714;SDS011;71125;44.066;2.982;2023-07-24T11:17:41;6.50;;;2.78;;
81714;SDS011;71125;44.066;2.982;2023-07-24T11:22:35;6.85;;;2.60;;
81714;SDS011;71125;44.066;2.982;2023-07-24T11:25:03;9.60;;;2.83;;
81714;SDS011;71125;44.066;2.982;2023-07-24T11:27:31;7.15;;;3.05;;
81714;SDS011;71125;44.066;2.982;2023-07-24T11:29:57;8.50;;;2.88;;
81714;SDS011;71125;44.066;2.982;2023-07-24T11:32:26;6.50;;;2.47;;
81714;SDS011;71125;44.066;2.982;2023-07-24T11:34:52;7.05;;;2.67;;
81714;SDS011;71125;44.066;2.982;2023-07-24T11:37:19;9.07;;;2.97;;
81714;SDS011;71125;44.066;2.982;2023-07-24T11:40:03;7.53;;;3.17;;
81714;SDS011;71125;44.066;2.982;2023-07-24T11:42:36;6.35;;;2.95;;
81714;SDS011;71125;44.066;2.982;2023-07-24T11:45:03;12.23;;;3.10;;
81714;SDS011;71125;44.066;2.982;2023-07-24T11:47:30;5.70;;;2.70;;
81714;SDS011;71125;44.066;2.982;2023-07-24T11:55:18;5.72;;;3.10;;
81714;SDS011;71125;44.066;2.982;2023-07-24T11:57:59;6.78;;;3.65;;
81714;SDS011;71125;44.066;2.982;2023-07-24T12:00:26;7.82;;;3.92;;
81714;SDS011;71125;44.066;2.982;2023-07-24T12:02:53;8.30;;;4.00;;
81714;SDS011;71125;44.066;2.982;2023-07-24T12:05:19;8.45;;;4.00;;
81714;SDS011;71125;44.066;2.982;2023-07-24T12:09:59;8.70;;;3.90;;
81714;SDS011;71125;44.066;2.982;2023-07-24T12:12:25;8.20;;;3.40;;
81714;SDS011;71125;44.066;2.982;2023-07-24T12:14:51;6.00;;;3.42;;
81714;SDS011;71125;44.066;2.982;2023-07-24T12:17:18;11.27;;;3.22;;
81714;SDS011;71125;44.066;2.982;2023-07-24T12:19:45;7.40;;;3.03;;
81714;SDS011;71125;44.066;2.982;2023-07-24T12:22:11;5.47;;;2.70;;
81714;SDS011;71125;44.066;2.982;2023-07-24T12:24:37;5.78;;;2.60;;
81714;SDS011;71125;44.066;2.982;2023-07-24T12:27:03;6.13;;;2.78;;
81714;SDS011;71125;44.066;2.982;2023-07-24T12:29:29;4.28;;;2.63;;
81714;SDS011;71125;44.066;2.982;2023-07-24T12:31:55;6.18;;;2.42;;
81714;SDS011;71125;44.066;2.982;2023-07-24T12:34:21;6.85;;;2.17;;
81714;SDS011;71125;44.066;2.982;2023-07-24T12:36:47;4.25;;;2.75;;
81714;SDS011;71125;44.066;2.982;2023-07-24T12:39:13;5.85;;;2.72;;
81714;SDS011;71125;44.066;2.982;2023-07-24T12:41:39;4.22;;;2.30;;
81714;SDS011;71125;44.066;2.982;2023-07-24T12:44:05;6.38;;;2.40;;
81714;SDS011;71125;44.066;2.982;2023-07-24T12:46:31;4.80;;;2.22;;
81714;SDS011;71125;44.066;2.982;2023-07-24T12:48:57;3.75;;;2.50;;
81714;SDS011;71125;44.066;2.982;2023-07-24T12:51:23;4.30;;;2.40;;
81714;SDS011;71125;44.066;2.982;2023-07-24T12:53:49;5.00;;;2.13;;
81714;SDS011;71125;44.066;2.982;2023-07-24T12:56:15;5.20;;;2.47;;
81714;SDS011;71125;44.066;2.982;2023-07-24T12:58:41;4.90;;;2.50;;
81714;SDS011;71125;44.066;2.982;2023-07-24T13:01:09;4.93;;;2.58;;
81714;SDS011;71125;44.066;2.982;2023-07-24T13:03:35;8.70;;;2.55;;
81714;SDS011;71125;44.066;2.982;2023-07-24T13:06:01;4.72;;;2.33;;
81714;SDS011;71125;44.066;2.982;2023-07-24T13:08:27;6.50;;;2.53;;
81714;SDS011;71125;44.066;2.982;2023-07-24T13:10:53;7.30;;;2.38;;
81714;SDS011;71125;44.066;2.982;2023-07-24T13:13:19;5.53;;;2.42;;
81714;SDS011;71125;44.066;2.982;2023-07-24T13:15:45;4.65;;;2.13;;
81714;SDS011;71125;44.066;2.982;2023-07-24T13:18:11;3.92;;;2.05;;
81714;SDS011;71125;44.066;2.982;2023-07-24T13:20:39;3.25;;;1.90;;
81714;SDS011;71125;44.066;2.982;2023-07-24T13:23:05;4.10;;;2.15;;
81714;SDS011;71125;44.066;2.982;2023-07-24T13:25:32;6.63;;;3.13;;
81714;SDS011;71125;44.066;2.982;2023-07-24T13:27:58;4.47;;;2.33;;
81714;SDS011;71125;44.066;2.982;2023-07-24T13:30:24;3.42;;;2.03;;
81714;SDS011;71125;44.066;2.982;2023-07-24T13:32:50;4.25;;;2.63;;
81714;SDS011;71125;44.066;2.982;2023-07-24T13:35:16;3.20;;;1.70;;
81714;SDS011;71125;44.066;2.982;2023-07-24T13:37:42;4.75;;;1.98;;
81714;SDS011;71125;44.066;2.982;2023-07-24T13:40:08;4.50;;;2.10;;
81714;SDS011;71125;44.066;2.982;2023-07-24T13:42:34;3.95;;;2.20;;
81714;SDS011;71125;44.066;2.982;2023-07-24T13:45:00;5.40;;;2.15;;
81714;SDS011;71125;44.066;2.982;2023-07-24T13:47:26;4.57;;;2.00;;
81714;SDS011;71125;44.066;2.982;2023-07-24T13:49:52;2.40;;;1.88;;
81714;SDS011;71125;44.066;2.982;2023-07-24T13:52:18;4.55;;;2.20;;
81714;SDS011;71125;44.066;2.982;2023-07-24T13:54:45;4.18;;;2.20;;
81714;SDS011;71125;44.066;2.982;2023-07-24T13:57:12;4.57;;;2.33;;
81714;SDS011;71125;44.066;2.982;2023-07-24T13:59:38;6.32;;;2.20;;
81714;SDS011;71125;44.066;2.982;2023-07-24T14:02:05;5.63;;;2.22;;
81714;SDS011;71125;44.066;2.982;2023-07-24T14:04:31;3.38;;;1.70;;
81714;SDS011;71125;44.066;2.982;2023-07-24T14:06:57;4.95;;;2.20;;
81714;SDS011;71125;44.066;2.982;2023-07-24T14:09:24;2.72;;;2.03;;
81714;SDS011;71125;44.066;2.982;2023-07-24T14:11:50;5.18;;;2.00;;
81714;SDS011;71125;44.066;2.982;2023-07-24T14:14:17;4.45;;;1.95;;
81714;SDS011;71125;44.066;2.982;2023-07-24T14:16:44;3.10;;;1.98;;
81714;SDS011;71125;44.066;2.982;2023-07-24T14:19:10;3.05;;;1.98;;
81714;SDS011;71125;44.066;2.982;2023-07-24T14:21:36;3.47;;;1.90;;
81714;SDS011;71125;44.066;2.982;2023-07-24T14:24:02;3.13;;;2.03;;
81714;SDS011;71125;44.066;2.982;2023-07-24T14:26:28;4.60;;;2.35;;
81714;SDS011;71125;44.066;2.982;2023-07-24T14:28:54;3.38;;;1.80;;
81714;SDS011;71125;44.066;2.982;2023-07-24T14:31:20;2.90;;;2.05;;
81714;SDS011;71125;44.066;2.982;2023-07-24T14:33:46;4.00;;;1.80;;
81714;SDS011;71125;44.066;2.982;2023-07-24T14:36:12;4.55;;;2.08;;
81714;SDS011;71125;44.066;2.982;2023-07-24T14:38:38;2.83;;;1.98;;
81714;SDS011;71125;44.066;2.982;2023-07-24T14:41:04;5.03;;;2.20;;
81714;SDS011;71125;44.066;2.982;2023-07-24T14:43:30;5.13;;;2.40;;
81714;SDS011;71125;44.066;2.982;2023-07-24T14:45:56;3.38;;;2.03;;
81714;SDS011;71125;44.066;2.982;2023-07-24T14:48:22;5.50;;;2.88;;
81714;SDS011;71125;44.066;2.982;2023-07-24T14:50:48;3.30;;;1.80;;
81714;SDS011;71125;44.066;2.982;2023-07-24T14:53:14;4.25;;;2.42;;
81714;SDS011;71125;44.066;2.982;2023-07-24T14:55:40;3.72;;;1.90;;
81714;SDS011;71125;44.066;2.982;2023-07-24T14:58:06;3.72;;;1.92;;
81714;SDS011;71125;44.066;2.982;2023-07-24T15:00:32;5.50;;;2.10;;
81714;SDS011;71125;44.066;2.982;2023-07-24T15:02:58;3.47;;;1.90;;